Wanhe — 3FJH7 — position and weather

sailwx.info

Track history (hours):
 
Tides and Currents Weather Stations Pressure Air Temp Water Temp Dewpoint Dewpoint Depression Visibility Wind Speed Wind Dir Waves Ship Positions

Wanhe

Last reported at 2014-Dec-10 23:07 UTC. Time now 2014-Dec-18 11:33 UTC.
Position N 29°47' E 122°05'.

Length 280 m; draft 7.3 m.

Type: Ship (hazmat cat A). MMSI: 351217000.

Date/timePositionNaut miles runAvg speedWind from/ knotsBaromVisibWave heightAir tempDewpointWater temp
2014-Dec-10 23:07N 29°47' E 122°05'0 0.0
2014-Dec-10 22:31N 29°47' E 122°05'0 0.0
2014-Dec-10 21:31N 29°47' E 122°05'0 0.0
2014-Dec-10 20:31N 29°47' E 122°05'0 0.0
2014-Dec-10 19:31N 29°47' E 122°05'0 0.0
2014-Dec-10 18:31N 29°47' E 122°05'0 0.0
2014-Dec-10 17:31N 29°47' E 122°05'0 0.0
2014-Dec-10 16:31N 29°47' E 122°05'0 0.0
2014-Dec-10 15:31N 29°47' E 122°05'0 0.0
2014-Dec-10 14:31N 29°47' E 122°05'0 0.0
2014-Dec-10 13:31N 29°47' E 122°05'0 0.0
2014-Dec-10 12:13N 29°47' E 122°05'0 0.0
2014-Dec-10 10:24N 29°47' E 122°05'0 0.0
2014-Dec-10 09:30N 29°47' E 122°05'0 0.0
2014-Dec-10 08:12N 29°47' E 122°05'0 0.0
2014-Dec-10 07:24N 29°47' E 122°05'0 0.0
2014-Dec-10 06:18N 29°47' E 122°05'0 0.0
2014-Dec-10 05:24N 29°47' E 122°05'0 0.0
2014-Dec-10 01:12N 29°47' E 122°05'0 0.0
2014-Dec-09 23:06N 29°47' E 122°05'0 0.0
2014-Dec-09 21:12N 29°47' E 122°05'0 0.0
2014-Dec-09 19:30N 29°47' E 122°05'0 0.0
2014-Dec-09 17:30N 29°47' E 122°05'0 0.0
2014-Dec-09 16:30N 29°47' E 122°05'0 0.0
2014-Dec-09 15:18N 29°47' E 122°05'0 0.0
2014-Dec-09 01:12N 29°47' E 122°05'0 0.0
2014-Dec-09 00:24N 29°47' E 122°05'0 0.0
2014-Dec-08 23:18N 29°47' E 122°05'0 0.0
2014-Dec-08 20:18N 29°47' E 122°05'0 0.0
2014-Dec-08 18:24N 29°47' E 122°05'0 0.0
2014-Dec-08 17:24N 29°47' E 122°05'0 0.0
2014-Dec-08 16:30N 29°47' E 122°05'0 0.0
2014-Dec-08 15:06N 29°47' E 122°05'0 0.0
2014-Dec-08 14:12N 29°47' E 122°05'0 0.0
2014-Dec-08 13:30N 29°47' E 122°05'0 0.0
2014-Dec-08 11:24N 29°47' E 122°05'0 0.0
2014-Dec-08 10:06N 29°47' E 122°05'0 0.0
2014-Dec-08 02:12N 29°47' E 122°05'0 0.0
2014-Dec-08 00:24N 29°47' E 122°05'0 0.0
2014-Dec-07 23:24N 29°47' E 122°05'0 0.0
2014-Dec-07 21:06N 29°47' E 122°05'0 0.0
2014-Dec-07 20:06N 29°47' E 122°05'0 0.0
2014-Dec-07 19:06N 29°47' E 122°05'0 0.0
2014-Dec-07 17:18N 29°47' E 122°05'0 0.0
2014-Dec-07 15:24N 29°47' E 122°05'0 0.0
2014-Dec-07 08:24N 29°47' E 122°05'0 0.0
2014-Dec-07 07:30N 29°47' E 122°05'0 0.0
2014-Dec-07 04:18N 29°47' E 122°05'0 0.0
2014-Dec-07 01:06N 29°47' E 122°05'0 0.0
2014-Dec-07 00:24N 29°47' E 122°05'0 0.0
2014-Dec-06 22:24N 29°47' E 122°05'0 0.0
2014-Dec-06 19:30N 29°47' E 122°05'0 0.0
2014-Dec-06 18:24N 29°47' E 122°05'0 0.0
2014-Dec-06 14:30N 29°47' E 122°05'0 0.0
2014-Dec-06 10:30N 29°47' E 122°05'0 0.0
2014-Dec-06 08:04N 29°47' E 122°05'0 0.0
2014-Dec-06 05:22N 29°47' E 122°05'0 0.0
2014-Dec-06 04:22N 29°47' E 122°05'2 2.6
2014-Dec-06 03:33N 29°48' E 122°07'7 7.3
2014-Dec-06 02:32N 29°48' E 122°15'9 9.0
2014-Dec-06 01:33N 29°44' E 122°25'3 0.7
2014-Dec-05 21:12N 29°45' E 122°28'0 0.0
2014-Dec-05 18:12N 29°45' E 122°28'0 0.0
2014-Dec-05 17:06N 29°45' E 122°28'0 0.1
2014-Dec-05 16:30N 29°45' E 122°28'0 0.2
2014-Dec-05 15:32N 29°46' E 122°28'1010.1
2014-Dec-05 14:33N 29°49' E 122°39'4511.2
2014-Dec-05 10:31N 30°32' E 122°22'1213.0
2014-Dec-05 09:33N 30°35' E 122°08'3 2.6
2014-Dec-05 08:33N 30°36' E 122°05'0 0.0
2014-Dec-05 07:30N 30°36' E 122°05'0 0.1
2014-Dec-05 06:33N 30°36' E 122°05'0 0.1
2014-Dec-05 05:33N 30°36' E 122°05'0 0.0
2014-Dec-05 04:33N 30°36' E 122°05'0 0.0
2014-Dec-05 03:30N 30°36' E 122°05'0 0.0
2014-Dec-05 02:33N 30°36' E 122°05'0 0.0
2014-Dec-05 01:33N 30°36' E 122°05'0 0.1
2014-Dec-05 00:33N 30°36' E 122°05'0 0.1
2014-Dec-04 23:33N 30°36' E 122°05'0 0.0
2014-Dec-04 22:30N 30°36' E 122°05'0 0.0
2014-Dec-04 21:24N 30°36' E 122°05'0 0.1
2014-Dec-04 20:27N 30°36' E 122°05'0 0.1
2014-Dec-04 19:33N 30°36' E 122°05'0 0.0
2014-Dec-04 18:33N 30°36' E 122°05'0 0.0
2014-Dec-04 17:33N 30°36' E 122°05'0 0.0
2014-Dec-04 16:33N 30°36' E 122°05'0 0.0
2014-Dec-04 15:27N 30°36' E 122°05'0 0.1
2014-Dec-04 14:33N 30°36' E 122°05'6 6.4
2014-Dec-04 13:33N 30°34' E 122°12'1211.6
2014-Dec-04 12:32N 30°32' E 122°26'55 3.4
2014-Dec-03 20:11N 29°40' E 122°47'5 8.7
2014-Dec-03 19:33N 29°35' E 122°47'42712.0
2014-Dec-02 08:06N 22°55' E 120°01'814.4
2014-Dec-02 07:33N 22°48' E 120°04'1414.0
2014-Dec-02 06:34N 22°36' E 120°12'8 8.1
2014-Dec-02 05:33N 22°33' E 120°20'0 0.2
2014-Dec-02 04:22N 22°33' E 120°20'0 0.0
2014-Dec-02 03:11N 22°33' E 120°20'0 0.0
2014-Dec-02 01:22N 22°33' E 120°20'0 0.0
2014-Dec-02 00:16N 22°33' E 120°20'0 0.0
2014-Dec-01 20:28N 22°33' E 120°20'0 0.0
2014-Dec-01 19:10N 22°33' E 120°20'0 0.0
2014-Dec-01 18:10N 22°33' E 120°20'0 0.0
2014-Dec-01 17:22N 22°33' E 120°20'0 0.0
2014-Dec-01 16:15N 22°33' E 120°20'0 0.0
2014-Dec-01 15:16N 22°33' E 120°20'3 4.6
2014-Dec-01 14:33N 22°32' E 120°17'4 4.0
2014-Dec-01 13:33N 22°32' E 120°12'9 8.0
2014-Dec-01 12:28N 22°40' E 120°07'1111.5
2014-Dec-01 11:32N 22°49' E 120°00'  
Track history (hours):
 
Tides and Currents Weather Stations Pressure Air Temp Water Temp Dewpoint Dewpoint Depression Visibility Wind Speed Wind Dir Waves Ship Positions

Wanhe

Last reported at 2014-Dec-10 23:07 UTC. Time now 2014-Dec-18 11:33 UTC.
Position N 29°47' E 122°05'.

Length 280 m; draft 7.3 m.

Type: Ship (hazmat cat A). MMSI: 351217000.

Date/timePositionNaut miles runAvg speedWind from/ knotsBaromVisibWave heightAir tempDewpointWater temp
2014-Dec-10 23:07N 29°47' E 122°05'0 0.0
2014-Dec-10 22:31N 29°47' E 122°05'0 0.0
2014-Dec-10 21:31N 29°47' E 122°05'0 0.0
2014-Dec-10 20:31N 29°47' E 122°05'0 0.0
2014-Dec-10 19:31N 29°47' E 122°05'0 0.0
2014-Dec-10 18:31N 29°47' E 122°05'0 0.0
2014-Dec-10 17:31N 29°47' E 122°05'0 0.0
2014-Dec-10 16:31N 29°47' E 122°05'0 0.0
2014-Dec-10 15:31N 29°47' E 122°05'0 0.0
2014-Dec-10 14:31N 29°47' E 122°05'0 0.0
2014-Dec-10 13:31N 29°47' E 122°05'0 0.0
2014-Dec-10 12:13N 29°47' E 122°05'0 0.0
2014-Dec-10 10:24N 29°47' E 122°05'0 0.0
2014-Dec-10 09:30N 29°47' E 122°05'0 0.0
2014-Dec-10 08:12N 29°47' E 122°05'0 0.0
2014-Dec-10 07:24N 29°47' E 122°05'0 0.0
2014-Dec-10 06:18N 29°47' E 122°05'0 0.0
2014-Dec-10 05:24N 29°47' E 122°05'0 0.0
2014-Dec-10 01:12N 29°47' E 122°05'0 0.0
2014-Dec-09 23:06N 29°47' E 122°05'0 0.0
2014-Dec-09 21:12N 29°47' E 122°05'0 0.0
2014-Dec-09 19:30N 29°47' E 122°05'0 0.0
2014-Dec-09 17:30N 29°47' E 122°05'0 0.0
2014-Dec-09 16:30N 29°47' E 122°05'0 0.0
2014-Dec-09 15:18N 29°47' E 122°05'0 0.0
2014-Dec-09 01:12N 29°47' E 122°05'0 0.0
2014-Dec-09 00:24N 29°47' E 122°05'0 0.0
2014-Dec-08 23:18N 29°47' E 122°05'0 0.0
2014-Dec-08 20:18N 29°47' E 122°05'0 0.0
2014-Dec-08 18:24N 29°47' E 122°05'0 0.0
2014-Dec-08 17:24N 29°47' E 122°05'0 0.0
2014-Dec-08 16:30N 29°47' E 122°05'0 0.0
2014-Dec-08 15:06N 29°47' E 122°05'0 0.0
2014-Dec-08 14:12N 29°47' E 122°05'0 0.0
2014-Dec-08 13:30N 29°47' E 122°05'0 0.0
2014-Dec-08 11:24N 29°47' E 122°05'0 0.0
2014-Dec-08 10:06N 29°47' E 122°05'0 0.0
2014-Dec-08 02:12N 29°47' E 122°05'0 0.0
2014-Dec-08 00:24N 29°47' E 122°05'0 0.0
2014-Dec-07 23:24N 29°47' E 122°05'0 0.0
2014-Dec-07 21:06N 29°47' E 122°05'0 0.0
2014-Dec-07 20:06N 29°47' E 122°05'0 0.0
2014-Dec-07 19:06N 29°47' E 122°05'0 0.0
2014-Dec-07 17:18N 29°47' E 122°05'0 0.0
2014-Dec-07 15:24N 29°47' E 122°05'0 0.0
2014-Dec-07 08:24N 29°47' E 122°05'0 0.0
2014-Dec-07 07:30N 29°47' E 122°05'0 0.0
2014-Dec-07 04:18N 29°47' E 122°05'0 0.0
2014-Dec-07 01:06N 29°47' E 122°05'0 0.0
2014-Dec-07 00:24N 29°47' E 122°05'0 0.0
2014-Dec-06 22:24N 29°47' E 122°05'0 0.0
2014-Dec-06 19:30N 29°47' E 122°05'0 0.0
2014-Dec-06 18:24N 29°47' E 122°05'0 0.0
2014-Dec-06 14:30N 29°47' E 122°05'0 0.0
2014-Dec-06 10:30N 29°47' E 122°05'0 0.0
2014-Dec-06 08:04N 29°47' E 122°05'0 0.0
2014-Dec-06 05:22N 29°47' E 122°05'0 0.0
2014-Dec-06 04:22N 29°47' E 122°05'2 2.6
2014-Dec-06 03:33N 29°48' E 122°07'7 7.3
2014-Dec-06 02:32N 29°48' E 122°15'9 9.0
2014-Dec-06 01:33N 29°44' E 122°25'3 0.7
2014-Dec-05 21:12N 29°45' E 122°28'0 0.0
2014-Dec-05 18:12N 29°45' E 122°28'0 0.0
2014-Dec-05 17:06N 29°45' E 122°28'0 0.1
2014-Dec-05 16:30N 29°45' E 122°28'0 0.2
2014-Dec-05 15:32N 29°46' E 122°28'1010.1
2014-Dec-05 14:33N 29°49' E 122°39'4511.2
2014-Dec-05 10:31N 30°32' E 122°22'1213.0
2014-Dec-05 09:33N 30°35' E 122°08'3 2.6
2014-Dec-05 08:33N 30°36' E 122°05'0 0.0
2014-Dec-05 07:30N 30°36' E 122°05'0 0.1
2014-Dec-05 06:33N 30°36' E 122°05'0 0.1
2014-Dec-05 05:33N 30°36' E 122°05'0 0.0
2014-Dec-05 04:33N 30°36' E 122°05'0 0.0
2014-Dec-05 03:30N 30°36' E 122°05'0 0.0
2014-Dec-05 02:33N 30°36' E 122°05'0 0.0
2014-Dec-05 01:33N 30°36' E 122°05'0 0.1
2014-Dec-05 00:33N 30°36' E 122°05'0 0.1
2014-Dec-04 23:33N 30°36' E 122°05'0 0.0
2014-Dec-04 22:30N 30°36' E 122°05'0 0.0
2014-Dec-04 21:24N 30°36' E 122°05'0 0.1
2014-Dec-04 20:27N 30°36' E 122°05'0 0.1
2014-Dec-04 19:33N 30°36' E 122°05'0 0.0
2014-Dec-04 18:33N 30°36' E 122°05'0 0.0
2014-Dec-04 17:33N 30°36' E 122°05'0 0.0
2014-Dec-04 16:33N 30°36' E 122°05'0 0.0
2014-Dec-04 15:27N 30°36' E 122°05'0 0.1
2014-Dec-04 14:33N 30°36' E 122°05'6 6.4
2014-Dec-04 13:33N 30°34' E 122°12'1211.6
2014-Dec-04 12:32N 30°32' E 122°26'55 3.4
2014-Dec-03 20:11N 29°40' E 122°47'5 8.7
2014-Dec-03 19:33N 29°35' E 122°47'42712.0
2014-Dec-02 08:06N 22°55' E 120°01'814.4
2014-Dec-02 07:33N 22°48' E 120°04'1414.0
2014-Dec-02 06:34N 22°36' E 120°12'8 8.1
2014-Dec-02 05:33N 22°33' E 120°20'0 0.2
2014-Dec-02 04:22N 22°33' E 120°20'0 0.0
2014-Dec-02 03:11N 22°33' E 120°20'0 0.0
2014-Dec-02 01:22N 22°33' E 120°20'0 0.0
2014-Dec-02 00:16N 22°33' E 120°20'0 0.0
2014-Dec-01 20:28N 22°33' E 120°20'0 0.0
2014-Dec-01 19:10N 22°33' E 120°20'0 0.0
2014-Dec-01 18:10N 22°33' E 120°20'0 0.0
2014-Dec-01 17:22N 22°33' E 120°20'0 0.0
2014-Dec-01 16:15N 22°33' E 120°20'0 0.0
2014-Dec-01 15:16N 22°33' E 120°20'3 4.6
2014-Dec-01 14:33N 22°32' E 120°17'4 4.0
2014-Dec-01 13:33N 22°32' E 120°12'9 8.0
2014-Dec-01 12:28N 22°40' E 120°07'1111.5
2014-Dec-01 11:32N 22°49' E 120°00'  

Dump ship's entire track history